aviador You're here:

UGTB Decoded Metar

TBILISI/NOVO-AL in GEORGIA
Report Time2017-08-18 16:00:00
UTC Time2017-08-18 16:30:06
Flight Rules vfr VFR
Wind110° at 07 kt
W.Decomp.*RWY 13: 6.4 kt HW 2.8 kt LCW
W.Rank110° ranks 17
Current wind is above 110° avg. (6.0)
Visibility9999 m
Phenomena:N/A
Clouds:N/A
Expected CloudBase > 5,600 ft AGL from Temp-Dew spread
CeilingNone
Temp29°C (ISA +17)
Dew Point15°C (43% RH)
Heat Index28.9°C
AAT28.1°C
QNH1014 hPa
Density Alt3,793 ft
Elevation1,624 ft
Report Wrong Elevation
Raw Report
METAR UGTB 181600Z 11007KT CAVOK 29/15 Q1014 R13R/CLRD70 NOSIG=

Extra information for UGTB:More info

Metar Taf Metar & Taf Last 4 Metars F.Rules Stats Wind Profile Meteogram Temp Stats Airport Information Weather charts Add Link Nearby VenuesMetar ALERT Operation Metar Decoded Social comments